createdAt,value
2018-11-02T00:00:25.271Z,0
2018-11-02T00:01:35.265Z,0
2018-11-02T00:02:45.092Z,0
2018-11-02T00:03:54.401Z,0
2018-11-02T00:05:04.520Z,0
2018-11-02T00:06:14.632Z,0
2018-11-02T00:07:24.814Z,0
2018-11-02T00:08:34.655Z,0
2018-11-02T00:09:44.200Z,0
2018-11-02T00:10:54.288Z,0
2018-11-02T00:12:04.196Z,0
2018-11-02T00:13:13.711Z,0
2018-11-02T00:14:24.484Z,0
2018-11-02T00:15:34.917Z,0
2018-11-02T00:16:44.671Z,0
2018-11-02T00:17:54.518Z,0
2018-11-02T00:19:04.111Z,0
2018-11-02T00:20:13.937Z,0
2018-11-02T00:21:23.514Z,0
2018-11-02T00:22:33.656Z,0
2018-11-02T00:23:43.748Z,0
2018-11-02T00:24:53.301Z,0
2018-11-02T00:26:03.382Z,0
2018-11-02T00:27:13.184Z,0
2018-11-02T00:28:23.254Z,0
2018-11-02T00:29:33.084Z,0
2018-11-02T00:30:42.936Z,0
2018-11-02T00:31:53.442Z,0
2018-11-02T00:33:03.344Z,0
2018-11-02T00:34:13.172Z,0
2018-11-02T00:35:23.486Z,0
2018-11-02T00:36:33.914Z,0
2018-11-02T00:37:43.940Z,0
2018-11-02T00:38:54.157Z,0
2018-11-02T00:40:03.718Z,0
2018-11-02T00:41:13.285Z,0
2018-11-02T00:42:23.361Z,0
2018-11-02T00:43:32.913Z,0
2018-11-02T00:44:42.749Z,0
2018-11-02T00:45:52.570Z,0
2018-11-02T00:47:02.667Z,0
2018-11-02T00:48:12.495Z,0
2018-11-02T00:49:22.606Z,0
2018-11-02T00:50:32.486Z,0
2018-11-02T00:51:42.311Z,0
2018-11-02T00:52:51.656Z,0
2018-11-02T00:54:01.762Z,0
2018-11-02T00:55:12.664Z,0
2018-11-02T00:56:22.841Z,0
2018-11-02T00:57:33.632Z,0
2018-11-02T00:58:43.797Z,0
2018-11-02T00:59:53.662Z,0
2018-11-02T01:01:03.741Z,0
2018-11-02T01:02:13.552Z,0
2018-11-02T01:03:23.676Z,0
2018-11-02T01:04:33.923Z,0
2018-11-02T01:05:44.392Z,0
2018-11-02T01:06:54.478Z,0
2018-11-02T01:08:04.342Z,0
2018-11-02T01:09:14.154Z,0
2018-11-02T01:10:24.245Z,0
2018-11-02T01:11:34.338Z,0
2018-11-02T01:12:44.398Z,0
2018-11-02T01:13:53.945Z,0
2018-11-02T01:15:04.034Z,0
2018-11-02T01:16:13.869Z,0
2018-11-02T01:17:23.957Z,0
2018-11-02T01:18:33.776Z,0
2018-11-02T01:19:43.884Z,0
2018-11-02T01:20:53.782Z,0
2018-11-02T01:22:03.411Z,0
2018-11-02T01:23:13.577Z,0
2018-11-02T01:24:22.632Z,0
2018-11-02T01:25:32.135Z,0
2018-11-02T01:26:42.243Z,0
2018-11-02T01:27:51.828Z,0
2018-11-02T01:29:01.805Z,0
2018-11-02T01:30:11.603Z,0
2018-11-02T01:31:20.892Z,0
2018-11-02T01:32:30.745Z,0
2018-11-02T01:33:40.578Z,0
2018-11-02T01:34:50.410Z,0
2018-11-02T01:36:00.372Z,0
2018-11-02T01:37:10.461Z,0
2018-11-02T01:38:20.016Z,0
2018-11-02T01:39:29.843Z,0
2018-11-02T01:40:39.386Z,0
2018-11-02T01:41:49.490Z,0
2018-11-02T01:42:59.610Z,0
2018-11-02T01:44:11.022Z,0
2018-11-02T01:45:21.200Z,0
2018-11-02T01:46:31.415Z,0
2018-11-02T01:47:41.515Z,0
2018-11-02T01:48:51.349Z,0
2018-11-02T01:50:01.876Z,0
2018-11-02T01:51:12.609Z,0
2018-11-02T01:52:22.444Z,0
2018-11-02T01:53:32.517Z,0
2018-11-02T01:54:42.321Z,0
2018-11-02T01:55:52.188Z,0
2018-11-02T01:57:02.012Z,0
2018-11-02T01:58:11.825Z,0
2018-11-02T01:59:21.640Z,0
2018-11-02T02:00:31.711Z,0
2018-11-02T02:01:41.542Z,0
2018-11-02T02:02:51.617Z,0
2018-11-02T02:04:01.756Z,0
2018-11-02T02:05:11.975Z,0
2018-11-02T02:06:21.021Z,0
2018-11-02T02:07:31.501Z,0
2018-11-02T02:08:41.573Z,0
2018-11-02T02:09:51.126Z,0
2018-11-02T02:11:01.010Z,0
2018-11-02T02:12:11.413Z,0
2018-11-02T02:13:22.325Z,0
2018-11-02T02:14:31.899Z,0
2018-11-02T02:15:41.763Z,0
2018-11-02T02:16:51.835Z,0
2018-11-02T02:18:01.659Z,0
2018-11-02T02:19:12.285Z,0
2018-11-02T02:20:22.091Z,0
2018-11-02T02:21:31.901Z,0
2018-11-02T02:22:41.993Z,0
2018-11-02T02:23:51.290Z,0
2018-11-02T02:25:01.105Z,0
2018-11-02T02:26:11.289Z,0
2018-11-02T02:27:21.969Z,0
2018-11-02T02:28:32.677Z,0
2018-11-02T02:29:42.778Z,0
2018-11-02T02:30:52.599Z,0
2018-11-02T02:32:02.477Z,0
2018-11-02T02:33:12.562Z,0
2018-11-02T02:34:22.363Z,0
2018-11-02T02:35:32.447Z,0
2018-11-02T02:36:42.248Z,0
2018-11-02T02:37:52.407Z,0
2018-11-02T02:39:02.227Z,0
2018-11-02T02:40:11.503Z,0
2018-11-02T02:41:21.046Z,0
2018-11-02T02:42:30.890Z,0
2018-11-02T02:43:41.008Z,0
2018-11-02T02:44:51.096Z,0
2018-11-02T02:46:01.244Z,0
2018-11-02T02:47:11.045Z,0
2018-11-02T02:48:21.145Z,0
2018-11-02T02:49:31.646Z,0
2018-11-02T02:50:42.365Z,0
2018-11-02T02:51:51.953Z,0
2018-11-02T02:53:01.749Z,0
2018-11-02T02:54:11.295Z,0
2018-11-02T02:55:21.429Z,0
2018-11-02T02:56:32.295Z,0
2018-11-02T02:57:42.392Z,0
2018-11-02T02:58:52.026Z,0
2018-11-02T03:00:03.593Z,0
2018-11-02T03:01:13.735Z,0
2018-11-02T03:02:23.306Z,0
2018-11-02T03:34:46.595Z,0
2018-11-02T03:35:56.677Z,0
2018-11-02T03:37:06.789Z,0
2018-11-02T03:38:16.605Z,0
2018-11-02T03:39:26.716Z,0
2018-11-02T03:40:37.303Z,0
2018-11-02T03:41:47.525Z,0
2018-11-02T03:42:57.571Z,0
2018-11-02T03:44:09.267Z,0
2018-11-02T03:45:19.139Z,0
2018-11-02T03:46:29.312Z,0
2018-11-02T03:47:39.428Z,0
2018-11-02T03:48:49.302Z,0
2018-11-02T03:49:59.401Z,0
2018-11-02T03:51:09.607Z,0
2018-11-02T03:52:19.766Z,0
2018-11-02T03:53:29.859Z,0
2018-11-02T03:54:39.681Z,0
2018-11-02T03:55:50.725Z,0
2018-11-02T03:57:01.205Z,0
2018-11-02T03:58:11.796Z,0
2018-11-02T03:59:21.102Z,0
2018-11-02T04:00:31.617Z,0
2018-11-02T04:01:43.551Z,0
2018-11-02T04:02:52.886Z,0
2018-11-02T04:04:03.725Z,0
2018-11-02T04:05:13.281Z,0
2018-11-02T04:06:23.364Z,0
2018-11-02T04:07:33.512Z,0
2018-11-02T04:08:43.625Z,0
2018-11-02T04:09:54.214Z,0
2018-11-02T04:11:04.381Z,0
2018-11-02T04:12:14.531Z,0
2018-11-02T04:13:24.643Z,0
2018-11-02T04:14:34.202Z,0
2018-11-02T04:15:44.117Z,0
2018-11-02T04:16:54.199Z,0
2018-11-02T04:18:03.760Z,0
2018-11-02T04:19:13.609Z,0
2018-11-02T04:20:23.422Z,0
2018-11-02T04:21:33.523Z,0
2018-11-02T04:22:44.116Z,0
2018-11-02T04:23:54.764Z,0
2018-11-02T04:25:06.049Z,0
2018-11-02T04:26:15.871Z,0
2018-11-02T04:27:25.976Z,0
2018-11-02T04:28:35.820Z,0
2018-11-02T04:29:45.747Z,0
2018-11-02T04:30:56.615Z,0
2018-11-02T04:32:06.427Z,0
2018-11-02T04:33:16.311Z,0
2018-11-02T04:34:26.207Z,0
2018-11-02T04:35:36.325Z,0
2018-11-02T04:36:46.432Z,0
2018-11-02T04:37:56.540Z,0
2018-11-02T04:39:08.630Z,0
2018-11-02T04:40:18.726Z,0
2018-11-02T04:41:28.601Z,0
2018-11-02T04:42:38.996Z,0
2018-11-02T04:43:49.411Z,0
2018-11-02T04:45:00.057Z,0
2018-11-02T04:46:10.536Z,0
2018-11-02T04:47:20.357Z,0
2018-11-02T04:48:30.462Z,0
2018-11-02T04:49:40.331Z,0
2018-11-02T04:50:50.295Z,0
2018-11-02T04:51:59.860Z,0
2018-11-02T04:53:10.357Z,0
2018-11-02T04:54:20.498Z,0
2018-11-02T04:55:30.340Z,0
2018-11-02T04:56:40.445Z,0
2018-11-02T04:57:50.277Z,0
2018-11-02T04:59:00.267Z,0
2018-11-02T05:00:10.360Z,0
2018-11-02T05:01:20.208Z,0
2018-11-02T05:02:30.439Z,0
2018-11-02T05:03:40.567Z,0
2018-11-02T05:04:50.814Z,0
2018-11-02T05:06:01.541Z,0
2018-11-02T05:07:11.606Z,0
2018-11-02T05:08:21.435Z,0
2018-11-02T05:09:31.275Z,0
2018-11-02T05:10:41.384Z,0
2018-11-02T05:11:50.402Z,0
2018-11-02T05:13:00.374Z,0
2018-11-02T05:14:10.209Z,0
2018-11-02T05:15:20.318Z,0
2018-11-02T05:16:30.417Z,0
2018-11-02T05:17:40.272Z,0
2018-11-02T05:18:49.842Z,0
2018-11-02T05:19:59.807Z,0
2018-11-02T05:21:09.869Z,0
2018-11-02T05:22:19.980Z,0
2018-11-02T05:23:29.868Z,0
2018-11-02T05:24:40.044Z,0
2018-11-02T05:25:50.145Z,0
2018-11-02T05:27:00.787Z,0
2018-11-02T05:28:11.584Z,0
2018-11-02T05:29:21.761Z,0
2018-11-02T05:30:31.875Z,0
2018-11-02T05:31:41.706Z,0
2018-11-02T05:32:50.999Z,0
2018-11-02T05:34:00.839Z,0
2018-11-02T05:35:10.979Z,0
2018-11-02T05:36:20.806Z,0
2018-11-02T05:37:30.366Z,0
2018-11-02T05:38:40.565Z,0
2018-11-02T05:39:50.217Z,0
2018-11-02T05:41:00.056Z,0
2018-11-02T05:42:10.150Z,5
2018-11-02T05:43:20.026Z,5
2018-11-02T05:44:30.136Z,5
2018-11-02T05:45:39.703Z,5
2018-11-02T05:46:49.781Z,5
2018-11-02T05:47:59.632Z,5
2018-11-02T05:49:12.999Z,5
2018-11-02T05:50:24.343Z,10
2018-11-02T05:51:33.793Z,10
2018-11-02T05:52:43.645Z,10
2018-11-02T05:53:53.304Z,10
2018-11-02T05:55:03.138Z,10
2018-11-02T05:56:13.243Z,10
2018-11-02T05:57:23.331Z,15
2018-11-02T05:58:33.518Z,15
2018-11-02T05:59:43.084Z,15
2018-11-02T06:00:52.944Z,20
2018-11-02T06:02:03.091Z,20
2018-11-02T06:03:12.960Z,20
2018-11-02T06:04:22.517Z,20
2018-11-02T06:05:32.675Z,25
2018-11-02T06:06:41.984Z,25
2018-11-02T06:07:52.053Z,25
2018-11-02T06:09:01.673Z,25
2018-11-02T06:10:11.872Z,25
2018-11-02T06:11:21.959Z,30
2018-11-02T06:12:32.107Z,30
2018-11-02T06:13:42.686Z,30
2018-11-02T06:14:52.867Z,30
2018-11-02T06:16:02.443Z,35
2018-11-02T06:17:12.549Z,35
2018-11-02T06:18:22.439Z,40
2018-11-02T06:19:32.288Z,40
2018-11-02T06:20:41.828Z,40
2018-11-02T06:21:51.649Z,40
2018-11-02T06:23:01.774Z,45
2018-11-02T06:24:11.793Z,45
2018-11-02T06:25:21.507Z,45
2018-11-02T06:26:31.619Z,45
2018-11-02T06:27:41.733Z,50
2018-11-02T06:28:51.857Z,50
2018-11-02T06:30:01.704Z,50
2018-11-02T06:31:11.277Z,50
2018-11-02T06:32:21.100Z,55
2018-11-02T06:33:31.520Z,55
2018-11-02T06:34:41.900Z,55
2018-11-02T06:35:52.368Z,55
2018-11-02T06:37:02.486Z,60
2018-11-02T06:38:12.334Z,60
2018-11-02T06:39:22.163Z,60
2018-11-02T06:40:31.469Z,60
2018-11-02T06:41:41.628Z,65
2018-11-02T06:42:51.733Z,65
2018-11-02T06:44:01.860Z,65
2018-11-02T06:45:12.839Z,65
2018-11-02T06:46:22.954Z,65
2018-11-02T06:47:33.067Z,60
2018-11-02T06:48:42.634Z,60
2018-11-02T06:49:52.756Z,65
2018-11-02T06:51:03.307Z,70
2018-11-02T06:52:12.727Z,75
2018-11-02T06:53:22.890Z,75
2018-11-02T06:54:33.486Z,75
2018-11-02T06:55:43.887Z,80
2018-11-02T06:56:53.556Z,80
2018-11-02T06:58:05.738Z,80
2018-11-02T06:59:16.598Z,80
2018-11-02T07:00:27.052Z,75
2018-11-02T07:01:37.331Z,80
2018-11-02T07:02:47.179Z,85
2018-11-02T07:03:57.284Z,85
2018-11-02T07:05:06.884Z,90
2018-11-02T07:06:16.971Z,90
2018-11-02T07:07:27.446Z,90
2018-11-02T07:08:38.577Z,80
2018-11-02T07:09:48.103Z,80
2018-11-02T07:10:57.925Z,95
2018-11-02T07:12:08.048Z,95
2018-11-02T07:13:18.159Z,95
2018-11-02T07:14:28.659Z,95
2018-11-02T07:15:39.292Z,95
2018-11-02T07:16:49.361Z,100
2018-11-02T07:17:59.199Z,100
2018-11-02T07:19:09.341Z,100
2018-11-02T07:20:19.183Z,85
2018-11-02T07:21:29.021Z,100
2018-11-02T07:22:38.846Z,80
2018-11-02T07:23:49.017Z,85
2018-11-02T07:24:59.197Z,85
2018-11-02T07:26:09.292Z,95
2018-11-02T07:27:19.177Z,110
2018-11-02T07:28:29.026Z,95
2018-11-02T07:29:38.380Z,85
2018-11-02T07:30:48.203Z,85
2018-11-02T07:31:58.368Z,110
2018-11-02T07:33:10.083Z,115
2018-11-02T07:34:20.467Z,115
2018-11-02T07:35:31.248Z,115
2018-11-02T07:36:41.943Z,115
2018-11-02T07:37:52.060Z,115
2018-11-02T07:39:02.023Z,115
2018-11-02T07:40:12.634Z,115
2018-11-02T07:41:22.485Z,115
2018-11-02T07:42:32.120Z,115
2018-11-02T07:43:42.246Z,115
2018-11-02T07:44:52.055Z,120
2018-11-02T07:46:01.917Z,120
2018-11-02T07:47:11.860Z,120
2018-11-02T07:48:21.642Z,120
2018-11-02T07:49:31.898Z,125
2018-11-02T07:50:41.831Z,125
2018-11-02T07:51:51.975Z,125
2018-11-02T07:53:02.362Z,130
2018-11-02T07:54:11.710Z,130
2018-11-02T07:55:21.350Z,130
2018-11-02T07:56:32.524Z,135
2018-11-02T07:57:42.785Z,135
2018-11-02T07:58:52.840Z,135
2018-11-02T08:00:02.542Z,140
2018-11-02T08:01:12.124Z,140
2018-11-02T08:02:22.031Z,140
2018-11-02T08:03:32.222Z,145
2018-11-02T08:04:42.068Z,145
2018-11-02T08:05:51.917Z,145
2018-11-02T08:07:01.748Z,145
2018-11-02T08:08:11.851Z,145
2018-11-02T08:09:21.687Z,140
2018-11-02T08:10:31.310Z,140
2018-11-02T08:11:41.475Z,145
2018-11-02T08:12:51.656Z,135
2018-11-02T08:14:01.783Z,140
2018-11-02T08:15:11.902Z,140
2018-11-02T08:16:21.730Z,140
2018-11-02T08:17:32.406Z,140
2018-11-02T08:18:42.353Z,140
2018-11-02T08:19:51.959Z,145
2018-11-02T08:21:02.086Z,145
2018-11-02T08:22:11.366Z,135
2018-11-02T08:23:20.922Z,130
2018-11-02T08:24:31.265Z,140
2018-11-02T08:25:41.527Z,135
2018-11-02T08:26:51.625Z,130
2018-11-02T08:28:01.689Z,120
2018-11-02T08:29:11.496Z,115
2018-11-02T08:30:21.066Z,90
2018-11-02T08:31:30.890Z,105
2018-11-02T08:32:40.966Z,110
2018-11-02T08:33:50.542Z,85
2018-11-02T08:35:00.106Z,90
2018-11-02T08:36:10.524Z,80
2018-11-02T08:37:20.350Z,80
2018-11-02T08:38:30.429Z,85
2018-11-02T08:39:40.241Z,85
2018-11-02T08:40:50.345Z,85
2018-11-02T08:42:00.432Z,100
2018-11-02T08:43:12.615Z,100
2018-11-02T08:44:22.185Z,130
2018-11-02T08:45:32.020Z,130
2018-11-02T08:46:42.572Z,115
2018-11-02T08:47:52.640Z,110
2018-11-02T08:49:05.332Z,135
2018-11-02T08:50:15.417Z,150
2018-11-02T08:51:25.480Z,150
2018-11-02T08:52:35.131Z,150
2018-11-02T08:53:44.942Z,150
2018-11-02T08:54:54.763Z,140
2018-11-02T08:56:04.591Z,145
2018-11-02T08:57:14.663Z,145
2018-11-02T08:58:26.125Z,150
2018-11-02T08:59:37.689Z,150
2018-11-02T09:00:47.119Z,155
2018-11-02T09:01:57.219Z,160
2018-11-02T09:03:06.793Z,150
2018-11-02T09:04:16.355Z,155
2018-11-02T09:05:26.466Z,160
2018-11-02T09:06:36.339Z,160
2018-11-02T09:07:45.950Z,165
2018-11-02T09:08:56.058Z,165
2018-11-02T09:10:08.191Z,165
2018-11-02T09:11:18.288Z,165
2018-11-02T09:12:28.265Z,160
2018-11-02T09:13:38.093Z,160
2018-11-02T09:14:47.664Z,160
2018-11-02T09:15:57.773Z,160
2018-11-02T09:17:07.843Z,160
2018-11-02T09:18:17.657Z,160
2018-11-02T09:19:27.542Z,165
2018-11-02T09:20:37.289Z,160
2018-11-02T09:21:47.392Z,165
2018-11-02T09:22:57.287Z,160
2018-11-02T09:24:07.301Z,160
2018-11-02T09:25:17.155Z,160
2018-11-02T09:26:26.996Z,165
2018-11-02T09:27:36.978Z,165
2018-11-02T09:28:47.188Z,165
2018-11-02T09:29:57.309Z,165
2018-11-02T09:31:08.541Z,165
2018-11-02T09:32:18.610Z,165
2018-11-02T09:33:28.711Z,165
2018-11-02T09:34:38.563Z,165
2018-11-02T09:35:48.709Z,165
2018-11-02T09:36:58.302Z,165
2018-11-02T09:38:08.418Z,165
2018-11-02T09:39:18.542Z,165
2018-11-02T09:40:29.380Z,170
2018-11-02T09:41:39.620Z,170
2018-11-02T09:42:50.477Z,170
2018-11-02T09:44:01.389Z,175
2018-11-02T09:45:11.545Z,170
2018-11-02T09:46:20.859Z,170
2018-11-02T09:47:30.481Z,170
2018-11-02T09:48:40.607Z,170
2018-11-02T09:49:50.474Z,170
2018-11-02T09:51:00.501Z,170
2018-11-02T09:52:12.447Z,170
2018-11-02T09:53:22.693Z,170
2018-11-02T09:54:32.813Z,175
2018-11-02T09:55:42.934Z,170
2018-11-02T09:56:53.144Z,170
2018-11-02T09:58:05.037Z,175
2018-11-02T09:59:15.185Z,175
2018-11-02T10:00:25.096Z,175
2018-11-02T10:01:35.237Z,175
2018-11-02T10:02:45.347Z,175
2018-11-02T10:03:55.206Z,175
2018-11-02T10:05:05.342Z,175
2018-11-02T10:06:15.305Z,175
2018-11-02T10:07:25.171Z,170
2018-11-02T10:08:34.646Z,150
2018-11-02T10:09:44.575Z,180
2018-11-02T10:10:54.710Z,180
2018-11-02T10:12:04.587Z,180
2018-11-02T10:13:15.498Z,180
2018-11-02T10:14:26.265Z,180
2018-11-02T10:15:36.652Z,180
2018-11-02T10:16:45.698Z,180
2018-11-02T10:17:55.619Z,180
2018-11-02T10:19:05.856Z,180
2018-11-02T10:20:15.709Z,180
2018-11-02T10:21:25.573Z,180
2018-11-02T10:22:35.217Z,180
2018-11-02T10:23:45.479Z,180
2018-11-02T10:24:55.406Z,180
2018-11-02T10:26:05.253Z,180
2018-11-02T10:27:14.829Z,180
2018-11-02T10:28:24.963Z,185
2018-11-02T10:29:34.874Z,185
2018-11-02T10:30:44.997Z,185
2018-11-02T10:31:54.884Z,185
2018-11-02T10:33:04.517Z,180
2018-11-02T10:34:14.697Z,175
2018-11-02T10:35:24.897Z,165
2018-11-02T10:36:35.828Z,165
2018-11-02T10:37:46.464Z,170
2018-11-02T10:38:56.493Z,170
2018-11-02T10:40:07.811Z,175
2018-11-02T10:41:17.942Z,180
2018-11-02T10:42:27.824Z,185
2018-11-02T10:43:37.947Z,185
2018-11-02T10:44:48.855Z,185
2018-11-02T10:45:58.507Z,185
2018-11-02T10:47:08.710Z,185
2018-11-02T10:48:18.566Z,190
2018-11-02T10:49:29.495Z,185
2018-11-02T10:50:39.644Z,185
2018-11-02T10:51:49.596Z,185
2018-11-02T10:52:59.453Z,185
2018-11-02T10:54:09.615Z,185
2018-11-02T10:55:19.752Z,185
2018-11-02T10:56:29.859Z,190
2018-11-02T10:57:39.635Z,195
2018-11-02T10:58:50.692Z,190
2018-11-02T11:00:01.481Z,190
2018-11-02T11:01:12.876Z,195
2018-11-02T11:02:23.114Z,190
2018-11-02T11:03:32.996Z,190
2018-11-02T11:04:43.161Z,190
2018-11-02T11:05:53.301Z,190
2018-11-02T11:07:03.686Z,190
2018-11-02T11:08:13.832Z,190
2018-11-02T11:09:24.056Z,190
2018-11-02T11:10:33.894Z,190
2018-11-02T11:11:45.059Z,190
2018-11-02T11:12:56.993Z,190
2018-11-02T11:14:07.317Z,190
2018-11-02T11:15:17.172Z,190
2018-11-02T11:16:27.303Z,190
2018-11-02T11:17:37.158Z,195
2018-11-02T11:18:47.177Z,195
2018-11-02T11:19:57.223Z,195
2018-11-02T11:21:07.676Z,195
2018-11-02T11:22:17.856Z,200
2018-11-02T11:23:27.805Z,195
2018-11-02T11:24:37.915Z,195
2018-11-02T11:25:47.493Z,195
2018-11-02T11:26:57.671Z,195
2018-11-02T11:28:07.847Z,190
2018-11-02T11:29:18.166Z,190
2018-11-02T11:30:28.108Z,190
2018-11-02T11:31:37.964Z,190
2018-11-02T11:32:48.096Z,190
2018-11-02T11:33:57.707Z,190
2018-11-02T11:35:07.549Z,185
2018-11-02T11:36:17.453Z,185
2018-11-02T11:37:27.457Z,185
2018-11-02T11:38:37.313Z,185
2018-11-02T11:39:47.274Z,185
2018-11-02T11:40:57.628Z,185
2018-11-02T11:42:07.533Z,190
2018-11-02T11:43:17.724Z,190
2018-11-02T11:44:27.874Z,195
2018-11-02T11:45:38.531Z,195
2018-11-02T11:46:48.431Z,195
2018-11-02T11:47:58.574Z,190
2018-11-02T11:49:10.605Z,190
2018-11-02T11:50:20.591Z,195
2018-11-02T11:51:30.165Z,195
2018-11-02T11:52:39.863Z,195
2018-11-02T11:53:50.013Z,140
2018-11-02T11:54:59.870Z,125
2018-11-02T11:56:09.462Z,95
2018-11-02T11:57:19.603Z,90
2018-11-02T11:58:29.479Z,90
2018-11-02T11:59:39.640Z,85
2018-11-02T12:00:49.213Z,85
2018-11-02T12:01:59.356Z,85
2018-11-02T12:03:09.503Z,85
2018-11-02T12:04:19.754Z,85
2018-11-02T12:05:29.690Z,85
2018-11-02T12:06:39.313Z,95
2018-11-02T12:07:49.488Z,100
2018-11-02T12:08:59.326Z,100
2018-11-02T12:10:10.297Z,95
2018-11-02T12:11:20.097Z,110
2018-11-02T12:12:29.988Z,90
2018-11-02T12:13:40.141Z,85
2018-11-02T12:14:49.459Z,85
2018-11-02T12:15:59.775Z,80
2018-11-02T12:17:11.118Z,85
2018-11-02T12:18:20.997Z,85
2018-11-02T12:19:30.571Z,85
2018-11-02T12:20:40.739Z,80
2018-11-02T12:21:51.379Z,80
2018-11-02T12:23:01.322Z,80
2018-11-02T12:24:11.204Z,80
2018-11-02T12:25:21.381Z,80
2018-11-02T12:26:30.991Z,80
2018-11-02T12:27:40.920Z,80
2018-11-02T12:28:52.119Z,80
2018-11-02T12:30:02.736Z,80
2018-11-02T12:31:12.449Z,80
2018-11-02T12:32:22.383Z,85
2018-11-02T12:33:32.232Z,85
2018-11-02T12:34:42.353Z,90
2018-11-02T12:35:52.494Z,95
2018-11-02T12:37:03.588Z,140
2018-11-02T12:38:13.083Z,125
2018-11-02T12:39:22.933Z,175
2018-11-02T12:40:33.097Z,180
2018-11-02T12:41:42.674Z,180
2018-11-02T12:42:52.634Z,185
2018-11-02T12:44:02.998Z,180
2018-11-02T12:45:12.911Z,160
2018-11-02T12:46:22.768Z,140
2018-11-02T12:47:32.907Z,165
2018-11-02T12:48:44.249Z,155
2018-11-02T12:49:57.211Z,140
2018-11-02T12:51:08.070Z,115
2018-11-02T12:52:17.934Z,100
2018-11-02T12:53:28.038Z,90
2018-11-02T12:54:38.190Z,85
2018-11-02T12:55:48.331Z,80
2018-11-02T12:56:58.187Z,80
2018-11-02T12:58:08.105Z,80
2018-11-02T12:59:18.389Z,80
2018-11-02T13:00:28.300Z,95
2018-11-02T13:01:37.878Z,105
2018-11-02T13:02:48.073Z,120
2018-11-02T13:03:58.185Z,105
2018-11-02T13:05:09.353Z,125
2018-11-02T13:06:19.311Z,130
2018-11-02T13:07:29.446Z,125
2018-11-02T13:08:39.563Z,125
2018-11-02T13:09:49.319Z,125
2018-11-02T13:10:59.757Z,130
2018-11-02T13:12:10.423Z,130
2018-11-02T13:13:20.546Z,135
2018-11-02T13:14:30.416Z,135
2018-11-02T13:15:40.393Z,130
2018-11-02T13:16:50.312Z,130
2018-11-02T13:18:00.601Z,135
2018-11-02T13:19:11.119Z,130
2018-11-02T13:20:22.155Z,130
2018-11-02T13:21:32.511Z,130
2018-11-02T13:22:42.677Z,130
2018-11-02T13:23:52.825Z,115
2018-11-02T13:25:02.748Z,105
2018-11-02T13:26:14.329Z,110
2018-11-02T13:27:24.196Z,115
2018-11-02T13:28:34.073Z,120
2018-11-02T13:29:44.289Z,110
2018-11-02T13:30:54.948Z,125
2018-11-02T13:32:05.720Z,125
2018-11-02T13:33:15.815Z,125
2018-11-02T13:34:25.987Z,125
2018-11-02T13:35:35.862Z,115
2018-11-02T13:36:46.460Z,80
2018-11-02T13:37:55.921Z,75
2018-11-02T13:39:05.784Z,100
2018-11-02T13:40:15.635Z,95
2018-11-02T13:41:25.506Z,90
2018-11-02T13:42:35.097Z,80
2018-11-02T13:43:45.939Z,90
2018-11-02T13:44:55.715Z,80
2018-11-02T13:46:05.930Z,75
2018-11-02T13:47:15.781Z,75
2018-11-02T13:48:25.359Z,70
2018-11-02T13:49:35.238Z,70
2018-11-02T13:50:45.302Z,65
2018-11-02T13:51:54.883Z,65
2018-11-02T13:53:05.918Z,65
2018-11-02T13:54:16.713Z,65
2018-11-02T13:55:27.009Z,65
2018-11-02T13:56:37.168Z,65
2018-11-02T13:57:47.031Z,60
2018-11-02T13:58:56.783Z,55
2018-11-02T14:00:07.389Z,50
2018-11-02T14:01:18.102Z,50
2018-11-02T14:02:27.992Z,50
2018-11-02T14:03:37.891Z,50
2018-11-02T14:04:48.054Z,50
2018-11-02T14:05:57.914Z,50
2018-11-02T14:07:07.772Z,55
2018-11-02T14:08:17.354Z,55
2018-11-02T14:09:27.348Z,55
2018-11-02T14:10:37.222Z,55
2018-11-02T14:11:47.409Z,55
2018-11-02T14:12:57.620Z,55
2018-11-02T14:14:07.639Z,55
2018-11-02T14:15:18.307Z,50
2018-11-02T14:16:28.490Z,50
2018-11-02T14:17:57.760Z,50
2018-11-02T14:19:07.897Z,50
2018-11-02T14:20:17.783Z,50
2018-11-02T14:21:27.622Z,50
2018-11-02T14:22:37.521Z,50
2018-11-02T14:23:47.710Z,65
2018-11-02T14:24:57.825Z,70
2018-11-02T14:26:09.787Z,65
2018-11-02T14:27:19.946Z,65
2018-11-02T14:28:30.108Z,70
2018-11-02T14:29:41.061Z,65
2018-11-02T14:30:51.972Z,65
2018-11-02T14:32:03.687Z,65
2018-11-02T14:33:13.543Z,60
2018-11-02T14:34:23.727Z,55
2018-11-02T14:35:33.575Z,45
2018-11-02T14:36:43.476Z,45
2018-11-02T14:37:53.619Z,45
2018-11-02T14:39:06.001Z,45
2018-11-02T14:40:15.891Z,40
2018-11-02T14:41:25.875Z,40
2018-11-02T14:42:36.051Z,40
2018-11-02T14:43:46.203Z,35
2018-11-02T14:44:56.073Z,35
2018-11-02T14:46:06.216Z,35
2018-11-02T14:47:16.087Z,30
2018-11-02T14:48:25.961Z,30
2018-11-02T14:49:36.120Z,30
2018-11-02T14:50:45.706Z,25
2018-11-02T14:51:56.779Z,25
2018-11-02T14:53:07.039Z,25
2018-11-02T14:54:17.743Z,25
2018-11-02T14:55:27.899Z,25
2018-11-02T14:56:38.047Z,20
2018-11-02T14:57:48.218Z,20
2018-11-02T14:58:58.386Z,20
2018-11-02T15:00:11.512Z,20
2018-11-02T15:01:21.640Z,20
2018-11-02T15:02:31.330Z,15
2018-11-02T15:03:41.235Z,15
2018-11-02T15:04:51.365Z,15
2018-11-02T15:06:01.482Z,15
2018-11-02T15:07:11.460Z,15
2018-11-02T15:08:21.796Z,10
2018-11-02T15:09:31.435Z,10
2018-11-02T15:10:41.575Z,10
2018-11-02T15:11:51.451Z,10
2018-11-02T15:13:01.324Z,10
2018-11-02T15:14:11.954Z,10
2018-11-02T15:15:22.246Z,10
2018-11-02T15:16:32.631Z,10
2018-11-02T15:17:42.834Z,5
2018-11-02T15:18:53.004Z,5
2018-11-02T15:20:05.376Z,5
2018-11-02T15:21:15.245Z,5
2018-11-02T15:22:25.397Z,5
2018-11-02T15:23:35.628Z,5
2018-11-02T15:24:45.799Z,5
2018-11-02T15:25:55.933Z,5
2018-11-02T15:27:06.210Z,5
2018-11-02T15:28:16.081Z,5
2018-11-02T15:29:25.942Z,5
2018-11-02T15:30:36.074Z,0
2018-11-02T15:31:45.940Z,0
2018-11-02T15:32:55.500Z,0
2018-11-02T15:34:06.182Z,0
2018-11-02T15:35:16.057Z,0
2018-11-02T15:36:27.210Z,0
2018-11-02T15:37:37.435Z,0
2018-11-02T15:38:47.885Z,0
2018-11-02T15:39:57.782Z,0
2018-11-02T15:41:07.372Z,0
2018-11-02T15:42:17.516Z,0
2018-11-02T15:43:27.391Z,0
2018-11-02T15:44:38.176Z,0
2018-11-02T15:45:48.176Z,0
2018-11-02T15:46:57.781Z,0
2018-11-02T15:48:08.014Z,0
2018-11-02T15:49:17.927Z,0
2018-11-02T15:50:28.063Z,0
2018-11-02T15:51:38.281Z,0
2018-11-02T15:52:48.163Z,0
2018-11-02T15:53:57.758Z,0
2018-11-02T15:55:07.668Z,0
2018-11-02T15:56:17.558Z,0
2018-11-02T15:57:27.412Z,0
2018-11-02T15:58:37.544Z,0
2018-11-02T15:59:47.716Z,0
2018-11-02T16:00:58.485Z,0
2018-11-02T16:02:09.187Z,0
2018-11-02T16:03:19.220Z,0
2018-11-02T16:04:29.385Z,0
2018-11-02T16:05:39.543Z,0
2018-11-02T16:06:50.152Z,0
2018-11-02T16:08:00.410Z,0
2018-11-02T16:09:12.581Z,0
2018-11-02T16:10:22.723Z,0
2018-11-02T16:11:32.861Z,0
2018-11-02T16:12:42.997Z,0
2018-11-02T16:13:52.873Z,0
2018-11-02T16:15:03.080Z,0
2018-11-02T16:16:13.211Z,0
2018-11-02T16:17:23.061Z,0
2018-11-02T16:18:33.203Z,0
2018-11-02T16:19:43.372Z,0
2018-11-02T16:20:53.230Z,0
2018-11-02T16:22:03.642Z,0
2018-11-02T16:23:14.361Z,0
2018-11-02T16:24:24.950Z,0
2018-11-02T16:25:35.316Z,0
2018-11-02T16:26:45.234Z,0
2018-11-02T16:27:55.382Z,0
2018-11-02T16:29:05.872Z,0
2018-11-02T16:30:16.866Z,0
2018-11-02T16:31:26.740Z,0
2018-11-02T16:32:36.696Z,0
2018-11-02T16:33:46.571Z,0
2018-11-02T16:34:56.712Z,0
2018-11-02T16:36:06.576Z,0
2018-11-02T16:37:16.733Z,0
2018-11-02T16:38:26.984Z,0
2018-11-02T16:39:36.860Z,0
2018-11-02T16:40:46.455Z,0
2018-11-02T16:41:56.626Z,0
2018-11-02T16:43:06.260Z,0
2018-11-02T16:44:16.980Z,0
2018-11-02T16:45:27.755Z,0
2018-11-02T16:46:38.331Z,0
2018-11-02T16:47:48.560Z,0
2018-11-02T16:48:58.176Z,0
2018-11-02T16:50:08.201Z,0
2018-11-02T16:51:18.383Z,0
2018-11-02T16:52:27.979Z,0
2018-11-02T16:53:37.842Z,0
2018-11-02T16:54:48.662Z,0
2018-11-02T16:55:58.520Z,0
2018-11-02T16:57:08.396Z,0
2018-11-02T16:58:18.833Z,0
2018-11-02T16:59:28.714Z,0
2018-11-02T17:00:38.558Z,0
2018-11-02T17:01:48.464Z,0
2018-11-02T17:02:58.339Z,0
2018-11-02T17:04:07.988Z,0
2018-11-02T17:05:18.256Z,0
2018-11-02T17:06:28.127Z,0
2018-11-02T17:07:38.057Z,0
2018-11-02T17:08:47.935Z,0
2018-11-02T17:09:58.709Z,0
2018-11-02T17:11:09.916Z,0
2018-11-02T17:12:20.086Z,0
2018-11-02T17:13:29.972Z,0
2018-11-02T17:14:39.841Z,0
2018-11-02T17:15:49.771Z,0